createdAt,value
2022-12-17T00:00:53.516Z,102079.28
2022-12-17T00:03:39.573Z,102076.72
2022-12-17T00:06:25.042Z,102087.31
2022-12-17T00:09:10.093Z,102082.88
2022-12-17T00:11:56.116Z,102081.75
2022-12-17T00:14:42.225Z,102086.94
2022-12-17T00:17:29.779Z,102080.00
2022-12-17T00:20:17.474Z,102080.00
2022-12-17T00:23:02.941Z,102088.84
2022-12-17T00:25:48.303Z,102093.25
2022-12-17T00:28:33.525Z,102089.00
2022-12-17T00:31:20.151Z,102106.50
2022-12-17T00:34:05.918Z,102104.56
2022-12-17T00:36:51.425Z,102109.81
2022-12-17T00:39:36.453Z,102111.63
2022-12-17T00:42:22.070Z,102119.50
2022-12-17T00:45:07.202Z,102115.84
2022-12-17T00:47:53.863Z,102121.91
2022-12-17T00:50:39.364Z,102118.41
2022-12-17T00:53:24.512Z,102120.03
2022-12-17T00:56:09.736Z,102128.75
2022-12-17T00:58:55.140Z,102129.00
2022-12-17T01:01:37.069Z,102133.69
2022-12-17T01:04:23.755Z,102128.25
2022-12-17T01:07:09.250Z,102133.28
2022-12-17T01:09:51.597Z,102131.47
2022-12-17T01:12:37.259Z,102135.00
2022-12-17T01:15:23.230Z,102131.47
2022-12-17T01:18:08.173Z,102132.22
2022-12-17T01:20:54.841Z,102131.38
2022-12-17T01:23:41.725Z,102133.03
2022-12-17T01:26:29.469Z,102142.69
2022-12-17T01:29:15.914Z,102136.75
2022-12-17T01:32:01.485Z,102138.69
2022-12-17T01:34:46.599Z,102136.97
2022-12-17T01:37:33.408Z,102138.88
2022-12-17T01:40:18.532Z,102134.50
2022-12-17T01:43:05.632Z,102143.22
2022-12-17T01:45:54.760Z,102142.31
2022-12-17T01:48:43.738Z,102143.28
2022-12-17T01:51:37.542Z,102152.13
2022-12-17T01:54:25.340Z,102159.94
2022-12-17T01:57:11.751Z,102161.50
2022-12-17T02:00:04.524Z,102167.56
2022-12-17T02:02:50.882Z,102168.50
2022-12-17T02:05:40.809Z,102176.47
2022-12-17T02:08:36.633Z,102171.13
2022-12-17T02:11:32.933Z,102173.69
2022-12-17T02:14:31.328Z,102166.59
2022-12-17T02:17:21.264Z,102172.75
2022-12-17T02:20:17.017Z,102171.06
2022-12-17T02:23:16.839Z,102175.47
2022-12-17T02:26:09.704Z,102169.31
2022-12-17T02:29:12.042Z,102166.44
2022-12-17T02:32:01.445Z,102170.97
2022-12-17T02:34:46.970Z,102173.63
2022-12-17T02:37:32.469Z,102172.69
2022-12-17T02:40:18.200Z,102167.56
2022-12-17T02:43:05.316Z,102166.03
2022-12-17T02:45:52.622Z,102173.84
2022-12-17T02:48:38.365Z,102175.47
2022-12-17T02:51:24.233Z,102187.81
2022-12-17T02:54:11.902Z,102189.66
2022-12-17T02:56:57.966Z,102181.75
2022-12-17T02:59:43.318Z,102184.22
2022-12-17T03:02:30.001Z,102187.66
2022-12-17T03:05:42.910Z,102188.66
2022-12-17T03:08:20.579Z,102188.56
2022-12-17T03:11:06.043Z,102195.25
2022-12-17T03:13:51.294Z,102202.22
2022-12-17T03:16:39.653Z,102207.72
2022-12-17T03:19:28.346Z,102204.22
2022-12-17T03:22:16.195Z,102207.94
2022-12-17T03:25:01.717Z,102214.81
2022-12-17T03:27:46.999Z,102207.72
2022-12-17T03:30:36.043Z,102211.38
2022-12-17T03:33:21.843Z,102213.94
2022-12-17T03:36:11.337Z,102216.47
2022-12-17T03:38:56.785Z,102218.25
2022-12-17T03:41:42.169Z,102215.75
2022-12-17T03:44:27.269Z,102219.34
2022-12-17T03:47:12.620Z,102223.72
2022-12-17T03:49:54.335Z,102229.81
2022-12-17T03:52:41.666Z,102227.97
2022-12-17T03:55:27.080Z,102227.00
2022-12-17T03:58:12.452Z,102225.28
2022-12-17T04:00:58.001Z,102221.81
2022-12-17T04:03:43.771Z,102220.00
2022-12-17T04:06:29.246Z,102224.88
2022-12-17T04:09:16.050Z,102223.22
2022-12-17T04:12:01.527Z,102229.56
2022-12-17T04:14:46.802Z,102231.28
2022-12-17T04:17:37.318Z,102239.81
2022-12-17T04:20:23.188Z,102246.75
2022-12-17T04:23:08.352Z,102247.59
2022-12-17T04:25:54.841Z,102245.69
2022-12-17T04:28:40.058Z,102239.44
2022-12-17T04:31:25.722Z,102248.16
2022-12-17T04:34:11.423Z,102243.78
2022-12-17T04:36:57.461Z,102251.09
2022-12-17T04:39:42.574Z,102249.41
2022-12-17T04:42:43.666Z,102251.03
2022-12-17T04:45:29.432Z,102253.75
2022-12-17T04:48:20.201Z,102252.59
2022-12-17T04:51:07.277Z,102257.88
2022-12-17T04:53:53.021Z,102251.84
2022-12-17T04:56:38.803Z,102260.75
2022-12-17T04:59:25.716Z,102255.47
2022-12-17T05:02:11.373Z,102267.72
2022-12-17T05:04:56.668Z,102276.53
2022-12-17T05:07:42.075Z,102278.22
2022-12-17T05:10:27.852Z,102274.72
2022-12-17T05:13:17.205Z,102271.75
2022-12-17T05:16:04.524Z,102284.06
2022-12-17T05:18:49.392Z,102277.66
2022-12-17T05:21:34.722Z,102277.03
2022-12-17T05:24:20.386Z,102278.91
2022-12-17T05:27:05.879Z,102280.47
2022-12-17T05:29:51.181Z,102276.94
2022-12-17T05:32:37.827Z,102279.72
2022-12-17T05:35:23.746Z,102282.38
2022-12-17T05:38:08.987Z,102283.97
2022-12-17T05:40:54.387Z,102289.72
2022-12-17T05:43:45.003Z,102292.28
2022-12-17T05:46:30.562Z,102298.38
2022-12-17T05:49:17.689Z,102297.81
2022-12-17T05:52:03.156Z,102294.34
2022-12-17T05:54:48.419Z,102296.09
2022-12-17T05:57:53.060Z,102297.72
2022-12-17T06:00:41.413Z,102298.72
2022-12-17T06:03:28.159Z,102297.22
2022-12-17T06:06:16.283Z,102304.41
2022-12-17T06:09:04.183Z,102307.88
2022-12-17T06:11:49.495Z,102311.22
2022-12-17T06:14:34.637Z,102304.22
2022-12-17T06:17:20.007Z,102306.78
2022-12-17T06:20:05.094Z,102318.41
2022-12-17T06:22:51.764Z,102323.53
2022-12-17T06:25:37.109Z,102319.13
2022-12-17T06:28:33.829Z,102322.56
2022-12-17T06:31:24.446Z,102331.44
2022-12-17T06:34:18.459Z,102323.66
2022-12-17T06:37:11.621Z,102331.44
2022-12-17T06:40:39.385Z,102335.81
2022-12-17T06:43:32.344Z,102338.84
2022-12-17T06:47:11.173Z,102335.47
2022-12-17T06:49:59.522Z,102340.66
2022-12-17T06:52:52.201Z,102339.81
2022-12-17T06:55:40.511Z,102340.75
2022-12-17T07:17:32.181Z,102353.59
2022-12-17T07:21:12.121Z,102365.78
2022-12-17T07:23:51.031Z,102367.41
2022-12-17T07:26:49.741Z,102368.13
2022-12-17T07:33:04.159Z,102370.03
2022-12-17T07:36:03.822Z,102378.81
2022-12-17T07:38:55.255Z,102384.06
2022-12-17T07:41:46.332Z,102388.53
2022-12-17T07:44:41.377Z,102392.72
2022-12-17T07:48:05.354Z,102387.47
2022-12-17T07:51:04.394Z,102389.09
2022-12-17T07:54:50.213Z,102396.44
2022-12-17T07:57:38.712Z,102400.78
2022-12-17T08:00:35.255Z,102403.44
2022-12-17T08:03:25.234Z,102412.13
2022-12-17T08:06:59.815Z,102415.50
2022-12-17T08:25:28.572Z,102429.91
2022-12-17T08:28:48.582Z,102426.19
2022-12-17T08:31:21.937Z,102437.56
2022-12-17T08:34:08.234Z,102442.28
2022-12-17T08:36:59.770Z,102434.53
2022-12-17T08:39:47.220Z,102438.25
2022-12-17T08:42:36.852Z,102446.34
2022-12-17T08:45:24.855Z,102445.50
2022-12-17T08:48:10.583Z,102455.94
2022-12-17T08:50:56.414Z,102454.03
2022-12-17T09:00:43.221Z,102455.38
2022-12-17T09:03:49.830Z,102458.03
2022-12-17T09:06:39.395Z,102462.22
2022-12-17T09:09:25.115Z,102466.38
2022-12-17T09:12:10.625Z,102469.03
2022-12-17T09:14:56.273Z,102470.94
2022-12-17T12:45:04.717Z,102530.88
2022-12-17T12:47:58.838Z,102530.13
2022-12-17T12:50:56.585Z,102526.09
2022-12-17T12:53:42.832Z,102532.41
2022-12-17T12:56:47.632Z,102542.91
2022-12-17T12:59:45.035Z,102540.00
2022-12-17T13:02:45.221Z,102534.00
2022-12-17T13:05:34.982Z,102534.81
2022-12-17T13:08:05.072Z,102529.75
2022-12-17T13:10:34.070Z,102525.88
2022-12-17T13:13:13.207Z,102512.75
2022-12-17T13:15:46.917Z,102515.16
2022-12-17T13:18:28.617Z,102513.56
2022-12-17T13:21:02.336Z,102512.50
2022-12-17T13:23:34.590Z,102513.03
2022-12-17T13:26:16.402Z,102515.75
2022-12-17T13:28:49.399Z,102516.44
2022-12-17T13:31:21.543Z,102516.69
2022-12-17T13:33:57.599Z,102509.25
2022-12-17T13:36:32.438Z,102515.00
2022-12-17T13:39:06.569Z,102528.16
2022-12-17T13:41:36.348Z,102526.53
2022-12-17T13:44:17.773Z,102530.50
2022-12-17T13:46:48.258Z,102527.88
2022-12-17T13:49:20.562Z,102520.69
2022-12-17T13:51:49.218Z,102515.53
2022-12-17T13:54:19.436Z,102513.84
2022-12-17T13:56:47.951Z,102510.69
2022-12-17T13:59:22.431Z,102513.13
2022-12-17T14:01:52.908Z,102514.78
2022-12-17T14:04:25.247Z,102519.59
2022-12-17T14:06:56.084Z,102521.91
2022-12-17T14:09:28.037Z,102523.53
2022-12-17T14:12:15.788Z,102518.47
2022-12-17T14:14:48.286Z,102520.81
2022-12-17T14:17:19.599Z,102522.03
2022-12-17T14:19:55.850Z,102523.16
2022-12-17T14:22:33.720Z,102523.75
2022-12-17T14:25:03.540Z,102521.56
2022-12-17T14:27:34.709Z,102522.16
2022-12-17T14:30:04.452Z,102534.75
2022-12-17T14:32:35.494Z,102536.59
2022-12-17T14:35:05.287Z,102535.59
2022-12-17T14:37:33.749Z,102534.56
2022-12-17T14:40:05.613Z,102537.09
2022-12-17T14:42:37.884Z,102544.56
2022-12-17T14:45:08.471Z,102539.22
2022-12-17T14:47:38.733Z,102540.31
2022-12-17T14:50:25.327Z,102546.59
2022-12-17T14:52:55.510Z,102541.16
2022-12-17T14:55:26.814Z,102543.53
2022-12-17T14:58:07.565Z,102547.91
2022-12-17T15:00:36.010Z,102550.22
2022-12-17T15:03:04.289Z,102543.94
2022-12-17T15:05:34.133Z,102537.00
2022-12-17T15:08:02.427Z,102543.84
2022-12-17T15:10:30.482Z,102540.22
2022-12-17T15:12:58.784Z,102538.19
2022-12-17T15:15:26.585Z,102543.94
2022-12-17T15:17:54.474Z,102542.84
2022-12-17T15:20:22.805Z,102547.06
2022-12-17T15:22:52.151Z,102542.50
2022-12-17T15:25:21.003Z,102550.19
2022-12-17T15:27:48.914Z,102551.59
2022-12-17T15:30:19.002Z,102557.75
2022-12-17T15:32:48.664Z,102563.50
2022-12-17T15:35:19.902Z,102565.91
2022-12-17T15:37:48.323Z,102569.13
2022-12-17T15:40:28.401Z,102567.19
2022-12-17T15:43:13.824Z,102575.84
2022-12-17T15:45:45.951Z,102564.25
2022-12-17T15:48:16.506Z,102572.03
2022-12-17T15:50:45.373Z,102572.81
2022-12-17T15:53:13.805Z,102570.88
2022-12-17T15:55:43.747Z,102559.41
2022-12-17T15:58:11.893Z,102560.97
2022-12-17T16:00:41.606Z,102557.47
2022-12-17T16:03:10.195Z,102553.13
2022-12-17T16:05:38.366Z,102559.28
2022-12-17T16:08:10.815Z,102556.34
2022-12-17T16:10:39.603Z,102558.75
2022-12-17T16:13:09.160Z,102563.88
2022-12-17T16:15:37.116Z,102572.31
2022-12-17T16:18:05.095Z,102585.22
2022-12-17T16:20:33.066Z,102581.72
2022-12-17T16:23:01.628Z,102579.97
2022-12-17T16:25:29.672Z,102587.75
2022-12-17T16:28:00.287Z,102588.69
2022-12-17T16:30:29.625Z,102598.91
2022-12-17T16:32:59.401Z,102593.34
2022-12-17T16:35:28.460Z,102596.66
2022-12-17T16:37:57.035Z,102591.78
2022-12-17T16:40:24.952Z,102601.94
2022-12-17T16:42:52.845Z,102602.41
2022-12-17T16:45:21.045Z,102601.41
2022-12-17T16:47:54.802Z,102604.72
2022-12-17T16:50:23.873Z,102609.97
2022-12-17T16:52:51.723Z,102609.97
2022-12-17T16:55:19.783Z,102606.19
2022-12-17T16:57:49.860Z,102607.59
2022-12-17T17:00:18.410Z,102607.28
2022-12-17T17:02:53.036Z,102608.94
2022-12-17T17:05:23.090Z,102610.34
2022-12-17T17:07:51.123Z,102608.63
2022-12-17T17:10:20.699Z,102612.72
2022-12-17T17:12:51.730Z,102609.78
2022-12-17T17:15:31.298Z,102611.38
2022-12-17T17:18:02.317Z,102606.94
2022-12-17T17:20:32.620Z,102609.34
2022-12-17T17:23:03.214Z,102616.19
2022-12-17T17:25:54.173Z,102599.22
2022-12-17T17:28:35.608Z,102605.91
2022-12-17T17:34:32.659Z,102621.50
2022-12-17T17:37:15.803Z,102626.63
2022-12-17T18:17:09.959Z,102621.38
2022-12-17T18:19:50.319Z,102616.69
2022-12-17T18:22:18.403Z,102626.94
2022-12-17T18:24:48.289Z,102624.44
2022-12-17T18:27:19.354Z,102630.34
2022-12-17T18:29:47.555Z,102628.75
2022-12-17T18:32:17.204Z,102630.59
2022-12-17T18:35:14.566Z,102626.94
2022-12-17T18:38:15.810Z,102633.88
2022-12-17T18:40:44.039Z,102644.47
2022-12-17T18:44:41.833Z,102639.22
2022-12-17T18:48:08.194Z,102633.75
2022-12-17T18:51:10.171Z,102633.38
2022-12-17T18:53:44.552Z,102636.81
2022-12-17T19:21:37.394Z,102647.81
2022-12-17T19:24:12.861Z,102653.59
2022-12-17T19:40:06.086Z,102664.59
2022-12-17T19:42:37.592Z,102659.00
2022-12-17T19:45:06.607Z,102666.59
2022-12-17T19:47:34.562Z,102664.28
2022-12-17T19:50:10.730Z,102676.88
2022-12-17T19:52:38.721Z,102680.38
2022-12-17T19:55:09.037Z,102685.50
2022-12-17T19:57:37.118Z,102676.53
2022-12-17T20:00:05.524Z,102681.97
2022-12-17T20:02:33.523Z,102677.66
2022-12-17T20:05:02.026Z,102680.28
2022-12-17T20:07:29.985Z,102684.59
2022-12-17T20:09:57.965Z,102685.50
2022-12-17T20:12:33.344Z,102675.75
2022-12-17T20:27:51.532Z,102685.88
2022-12-17T20:30:19.810Z,102685.75
2022-12-17T20:32:48.138Z,102689.41
2022-12-17T20:35:16.025Z,102685.88
2022-12-17T20:37:43.999Z,102679.75
2022-12-17T20:40:12.313Z,102679.75
2022-12-17T20:42:40.203Z,102684.84
2022-12-17T20:45:10.596Z,102685.75
2022-12-17T20:47:38.527Z,102688.25
2022-12-17T20:50:07.319Z,102692.44
2022-12-17T20:52:51.041Z,102694.00
2022-12-17T20:55:39.347Z,102691.25
2022-12-17T20:58:38.744Z,102691.38
